sensor_id;sensor_type;location;lat;lon;timestamp;P1;durP1;ratioP1;P2;durP2;ratioP2
13605;SDS011;6874;52.084;5.090;2023-04-22T00:01:00;16.77;;;16.27;;
13605;SDS011;6874;52.084;5.090;2023-04-22T00:03:26;16.33;;;15.83;;
13605;SDS011;6874;52.084;5.090;2023-04-22T00:05:52;17.67;;;17.13;;
13605;SDS011;6874;52.084;5.090;2023-04-22T00:08:18;16.33;;;15.83;;
13605;SDS011;6874;52.084;5.090;2023-04-22T00:10:44;17.13;;;16.63;;
13605;SDS011;6874;52.084;5.090;2023-04-22T00:13:09;16.40;;;15.90;;
13605;SDS011;6874;52.084;5.090;2023-04-22T00:15:35;16.20;;;15.70;;
13605;SDS011;6874;52.084;5.090;2023-04-22T00:18:01;16.03;;;15.53;;
13605;SDS011;6874;52.084;5.090;2023-04-22T00:20:26;16.17;;;15.67;;
13605;SDS011;6874;52.084;5.090;2023-04-22T00:22:53;16.90;;;16.40;;
13605;SDS011;6874;52.084;5.090;2023-04-22T00:25:18;17.07;;;16.47;;
13605;SDS011;6874;52.084;5.090;2023-04-22T00:27:44;15.93;;;15.43;;
13605;SDS011;6874;52.084;5.090;2023-04-22T00:30:10;17.07;;;16.57;;
13605;SDS011;6874;52.084;5.090;2023-04-22T00:32:35;16.67;;;16.17;;
13605;SDS011;6874;52.084;5.090;2023-04-22T00:35:02;15.63;;;15.13;;
13605;SDS011;6874;52.084;5.090;2023-04-22T00:37:28;15.30;;;14.80;;
13605;SDS011;6874;52.084;5.090;2023-04-22T00:39:53;15.40;;;14.93;;
13605;SDS011;6874;52.084;5.090;2023-04-22T00:42:19;16.30;;;15.80;;
13605;SDS011;6874;52.084;5.090;2023-04-22T00:44:45;15.87;;;15.37;;
13605;SDS011;6874;52.084;5.090;2023-04-22T00:47:12;16.50;;;16.00;;
13605;SDS011;6874;52.084;5.090;2023-04-22T00:49:37;16.23;;;15.73;;
13605;SDS011;6874;52.084;5.090;2023-04-22T00:52:03;16.03;;;15.53;;
13605;SDS011;6874;52.084;5.090;2023-04-22T00:54:29;16.50;;;16.00;;
13605;SDS011;6874;52.084;5.090;2023-04-22T00:56:56;16.67;;;16.17;;
13605;SDS011;6874;52.084;5.090;2023-04-22T00:59:22;16.30;;;15.80;;
13605;SDS011;6874;52.084;5.090;2023-04-22T01:01:49;17.13;;;16.63;;
13605;SDS011;6874;52.084;5.090;2023-04-22T01:04:15;16.47;;;15.97;;
13605;SDS011;6874;52.084;5.090;2023-04-22T01:06:42;16.53;;;16.03;;
13605;SDS011;6874;52.084;5.090;2023-04-22T01:09:08;16.27;;;15.77;;
13605;SDS011;6874;52.084;5.090;2023-04-22T01:11:34;15.80;;;15.30;;
13605;SDS011;6874;52.084;5.090;2023-04-22T01:14:00;17.50;;;17.00;;
13605;SDS011;6874;52.084;5.090;2023-04-22T01:16:27;16.57;;;16.07;;
13605;SDS011;6874;52.084;5.090;2023-04-22T01:18:55;15.53;;;15.03;;
13605;SDS011;6874;52.084;5.090;2023-04-22T01:21:21;16.77;;;16.27;;
13605;SDS011;6874;52.084;5.090;2023-04-22T01:23:48;17.63;;;17.10;;
13605;SDS011;6874;52.084;5.090;2023-04-22T01:26:15;16.57;;;16.07;;
13605;SDS011;6874;52.084;5.090;2023-04-22T01:28:40;15.93;;;15.43;;
13605;SDS011;6874;52.084;5.090;2023-04-22T01:31:06;15.50;;;15.03;;
13605;SDS011;6874;52.084;5.090;2023-04-22T01:33:32;17.00;;;16.50;;
13605;SDS011;6874;52.084;5.090;2023-04-22T01:35:58;17.60;;;17.07;;
13605;SDS011;6874;52.084;5.090;2023-04-22T01:38:24;16.43;;;15.93;;
13605;SDS011;6874;52.084;5.090;2023-04-22T01:40:50;17.57;;;17.03;;
13605;SDS011;6874;52.084;5.090;2023-04-22T01:43:15;16.33;;;15.83;;
13605;SDS011;6874;52.084;5.090;2023-04-22T01:45:41;17.23;;;16.73;;
13605;SDS011;6874;52.084;5.090;2023-04-22T01:48:06;15.57;;;15.07;;
13605;SDS011;6874;52.084;5.090;2023-04-22T01:50:32;15.90;;;15.40;;
13605;SDS011;6874;52.084;5.090;2023-04-22T01:52:58;15.50;;;15.00;;
13605;SDS011;6874;52.084;5.090;2023-04-22T01:55:24;16.40;;;15.90;;
13605;SDS011;6874;52.084;5.090;2023-04-22T01:57:49;15.83;;;15.33;;
13605;SDS011;6874;52.084;5.090;2023-04-22T02:00:16;15.47;;;14.97;;
13605;SDS011;6874;52.084;5.090;2023-04-22T02:02:42;16.13;;;15.63;;
13605;SDS011;6874;52.084;5.090;2023-04-22T02:05:07;15.93;;;15.43;;
13605;SDS011;6874;52.084;5.090;2023-04-22T02:07:33;15.93;;;15.43;;
13605;SDS011;6874;52.084;5.090;2023-04-22T02:10:00;14.90;;;14.47;;
13605;SDS011;6874;52.084;5.090;2023-04-22T02:12:26;16.63;;;16.13;;
13605;SDS011;6874;52.084;5.090;2023-04-22T02:14:52;14.30;;;13.90;;
13605;SDS011;6874;52.084;5.090;2023-04-22T02:17:17;14.57;;;14.17;;
13605;SDS011;6874;52.084;5.090;2023-04-22T02:19:43;14.40;;;14.00;;
13605;SDS011;6874;52.084;5.090;2023-04-22T02:22:08;14.43;;;14.03;;
13605;SDS011;6874;52.084;5.090;2023-04-22T02:24:34;15.87;;;15.37;;
13605;SDS011;6874;52.084;5.090;2023-04-22T02:27:00;15.07;;;14.60;;
13605;SDS011;6874;52.084;5.090;2023-04-22T02:29:25;14.97;;;14.53;;
13605;SDS011;6874;52.084;5.090;2023-04-22T02:31:51;14.20;;;13.80;;
13605;SDS011;6874;52.084;5.090;2023-04-22T02:34:16;15.13;;;14.67;;
13605;SDS011;6874;52.084;5.090;2023-04-22T02:36:42;13.70;;;13.30;;
13605;SDS011;6874;52.084;5.090;2023-04-22T02:39:07;13.87;;;13.47;;
13605;SDS011;6874;52.084;5.090;2023-04-22T02:41:33;14.43;;;14.03;;
13605;SDS011;6874;52.084;5.090;2023-04-22T02:43:59;12.57;;;12.17;;
13605;SDS011;6874;52.084;5.090;2023-04-22T02:46:24;12.80;;;12.40;;
13605;SDS011;6874;52.084;5.090;2023-04-22T02:48:50;12.83;;;12.43;;
13605;SDS011;6874;52.084;5.090;2023-04-22T02:51:15;13.40;;;13.00;;
13605;SDS011;6874;52.084;5.090;2023-04-22T02:53:41;12.87;;;12.47;;
13605;SDS011;6874;52.084;5.090;2023-04-22T02:56:07;12.73;;;12.33;;
13605;SDS011;6874;52.084;5.090;2023-04-22T02:58:32;12.60;;;12.20;;
13605;SDS011;6874;52.084;5.090;2023-04-22T03:00:58;12.30;;;11.90;;
13605;SDS011;6874;52.084;5.090;2023-04-22T03:03:24;12.77;;;12.37;;
13605;SDS011;6874;52.084;5.090;2023-04-22T03:05:50;12.20;;;11.80;;
13605;SDS011;6874;52.084;5.090;2023-04-22T03:08:16;11.40;;;11.10;;
13605;SDS011;6874;52.084;5.090;2023-04-22T03:10:41;12.50;;;12.10;;
13605;SDS011;6874;52.084;5.090;2023-04-22T03:13:07;12.53;;;12.13;;
13605;SDS011;6874;52.084;5.090;2023-04-22T03:15:33;12.77;;;12.37;;
13605;SDS011;6874;52.084;5.090;2023-04-22T03:17:58;15.63;;;15.13;;
13605;SDS011;6874;52.084;5.090;2023-04-22T03:20:24;13.03;;;12.63;;
13605;SDS011;6874;52.084;5.090;2023-04-22T03:22:49;14.10;;;13.70;;
13605;SDS011;6874;52.084;5.090;2023-04-22T03:25:15;13.20;;;12.80;;
13605;SDS011;6874;52.084;5.090;2023-04-22T03:27:40;13.03;;;12.63;;
13605;SDS011;6874;52.084;5.090;2023-04-22T03:30:06;12.93;;;12.53;;
13605;SDS011;6874;52.084;5.090;2023-04-22T03:32:32;14.40;;;14.00;;
13605;SDS011;6874;52.084;5.090;2023-04-22T03:34:57;14.53;;;14.13;;
13605;SDS011;6874;52.084;5.090;2023-04-22T03:37:23;14.07;;;13.67;;
13605;SDS011;6874;52.084;5.090;2023-04-22T03:39:48;14.20;;;13.80;;
13605;SDS011;6874;52.084;5.090;2023-04-22T03:42:14;14.67;;;14.23;;
13605;SDS011;6874;52.084;5.090;2023-04-22T03:44:40;16.60;;;16.10;;
13605;SDS011;6874;52.084;5.090;2023-04-22T03:47:06;15.90;;;15.40;;
13605;SDS011;6874;52.084;5.090;2023-04-22T03:49:31;15.90;;;15.40;;
13605;SDS011;6874;52.084;5.090;2023-04-22T03:51:57;16.53;;;16.03;;
13605;SDS011;6874;52.084;5.090;2023-04-22T03:54:23;17.40;;;16.90;;
13605;SDS011;6874;52.084;5.090;2023-04-22T03:56:48;16.67;;;16.17;;
13605;SDS011;6874;52.084;5.090;2023-04-22T03:59:14;18.97;;;18.37;;
13605;SDS011;6874;52.084;5.090;2023-04-22T04:01:41;17.13;;;16.63;;
13605;SDS011;6874;52.084;5.090;2023-04-22T04:04:06;18.77;;;18.17;;
13605;SDS011;6874;52.084;5.090;2023-04-22T04:06:32;18.47;;;17.90;;
13605;SDS011;6874;52.084;5.090;2023-04-22T04:08:57;18.40;;;17.83;;
13605;SDS011;6874;52.084;5.090;2023-04-22T04:11:23;18.80;;;18.20;;
13605;SDS011;6874;52.084;5.090;2023-04-22T04:13:49;19.73;;;19.13;;
13605;SDS011;6874;52.084;5.090;2023-04-22T04:16:14;19.63;;;19.03;;
13605;SDS011;6874;52.084;5.090;2023-04-22T04:18:40;18.90;;;18.30;;
13605;SDS011;6874;52.084;5.090;2023-04-22T04:21:06;18.70;;;18.10;;
13605;SDS011;6874;52.084;5.090;2023-04-22T04:23:31;20.27;;;19.67;;
13605;SDS011;6874;52.084;5.090;2023-04-22T04:25:57;21.20;;;20.53;;
13605;SDS011;6874;52.084;5.090;2023-04-22T04:28:25;21.17;;;20.50;;
13605;SDS011;6874;52.084;5.090;2023-04-22T04:30:51;22.57;;;21.87;;
13605;SDS011;6874;52.084;5.090;2023-04-22T04:33:17;23.27;;;22.57;;
13605;SDS011;6874;52.084;5.090;2023-04-22T04:35:43;24.23;;;23.47;;
13605;SDS011;6874;52.084;5.090;2023-04-22T04:38:08;22.57;;;21.87;;
13605;SDS011;6874;52.084;5.090;2023-04-22T04:40:36;24.77;;;23.97;;
13605;SDS011;6874;52.084;5.090;2023-04-22T04:43:02;22.93;;;22.23;;
13605;SDS011;6874;52.084;5.090;2023-04-22T04:45:32;25.00;;;24.20;;
13605;SDS011;6874;52.084;5.090;2023-04-22T04:47:58;24.60;;;23.83;;
13605;SDS011;6874;52.084;5.090;2023-04-22T04:50:24;24.17;;;23.40;;
13605;SDS011;6874;52.084;5.090;2023-04-22T04:52:51;26.00;;;25.20;;
13605;SDS011;6874;52.084;5.090;2023-04-22T04:55:17;26.40;;;25.57;;
13605;SDS011;6874;52.084;5.090;2023-04-22T04:57:43;27.00;;;26.17;;
13605;SDS011;6874;52.084;5.090;2023-04-22T05:00:09;25.47;;;24.67;;
13605;SDS011;6874;52.084;5.090;2023-04-22T05:02:35;25.63;;;24.83;;
13605;SDS011;6874;52.084;5.090;2023-04-22T05:05:01;28.30;;;27.40;;
13605;SDS011;6874;52.084;5.090;2023-04-22T05:07:27;24.37;;;23.60;;
13605;SDS011;6874;52.084;5.090;2023-04-22T05:09:52;26.43;;;25.60;;
13605;SDS011;6874;52.084;5.090;2023-04-22T05:12:18;27.60;;;26.70;;
13605;SDS011;6874;52.084;5.090;2023-04-22T05:14:44;31.40;;;30.40;;
13605;SDS011;6874;52.084;5.090;2023-04-22T05:17:10;32.60;;;31.57;;
13605;SDS011;6874;52.084;5.090;2023-04-22T05:19:37;36.17;;;35.00;;
13605;SDS011;6874;52.084;5.090;2023-04-22T05:22:02;33.00;;;31.93;;
13605;SDS011;6874;52.084;5.090;2023-04-22T05:24:28;32.20;;;31.20;;
13605;SDS011;6874;52.084;5.090;2023-04-22T05:26:53;35.37;;;34.27;;
13605;SDS011;6874;52.084;5.090;2023-04-22T05:29:19;31.93;;;30.93;;
13605;SDS011;6874;52.084;5.090;2023-04-22T05:31:44;35.77;;;34.63;;
13605;SDS011;6874;52.084;5.090;2023-04-22T05:34:10;34.53;;;33.43;;
13605;SDS011;6874;52.084;5.090;2023-04-22T05:36:36;35.90;;;34.77;;
13605;SDS011;6874;52.084;5.090;2023-04-22T05:39:02;32.47;;;31.47;;
13605;SDS011;6874;52.084;5.090;2023-04-22T05:41:27;34.97;;;33.87;;
13605;SDS011;6874;52.084;5.090;2023-04-22T05:43:53;35.87;;;34.73;;
13605;SDS011;6874;52.084;5.090;2023-04-22T05:46:19;36.20;;;35.03;;
13605;SDS011;6874;52.084;5.090;2023-04-22T05:48:45;35.33;;;34.23;;
13605;SDS011;6874;52.084;5.090;2023-04-22T05:51:10;33.30;;;32.23;;
13605;SDS011;6874;52.084;5.090;2023-04-22T05:53:36;35.23;;;34.13;;
13605;SDS011;6874;52.084;5.090;2023-04-22T05:56:01;33.00;;;31.97;;
13605;SDS011;6874;52.084;5.090;2023-04-22T05:58:27;32.27;;;31.27;;
13605;SDS011;6874;52.084;5.090;2023-04-22T06:00:52;33.50;;;32.43;;
13605;SDS011;6874;52.084;5.090;2023-04-22T06:03:18;33.33;;;32.27;;
13605;SDS011;6874;52.084;5.090;2023-04-22T06:05:43;33.47;;;32.40;;
13605;SDS011;6874;52.084;5.090;2023-04-22T06:08:09;32.83;;;31.80;;
13605;SDS011;6874;52.084;5.090;2023-04-22T06:10:35;30.10;;;29.17;;
13605;SDS011;6874;52.084;5.090;2023-04-22T06:13:01;33.03;;;32.00;;
13605;SDS011;6874;52.084;5.090;2023-04-22T06:15:26;29.57;;;28.67;;
13605;SDS011;6874;52.084;5.090;2023-04-22T06:17:52;30.97;;;29.97;;
13605;SDS011;6874;52.084;5.090;2023-04-22T06:20:18;29.63;;;28.73;;
13605;SDS011;6874;52.084;5.090;2023-04-22T06:22:43;29.63;;;28.73;;
13605;SDS011;6874;52.084;5.090;2023-04-22T06:25:09;32.60;;;31.60;;
13605;SDS011;6874;52.084;5.090;2023-04-22T06:27:34;29.83;;;28.90;;
13605;SDS011;6874;52.084;5.090;2023-04-22T06:30:01;31.93;;;30.93;;
13605;SDS011;6874;52.084;5.090;2023-04-22T06:32:27;29.77;;;28.87;;
13605;SDS011;6874;52.084;5.090;2023-04-22T06:34:53;33.23;;;32.20;;
13605;SDS011;6874;52.084;5.090;2023-04-22T06:37:18;31.00;;;30.00;;
13605;SDS011;6874;52.084;5.090;2023-04-22T06:39:44;34.43;;;33.33;;
13605;SDS011;6874;52.084;5.090;2023-04-22T06:42:09;35.27;;;34.17;;
13605;SDS011;6874;52.084;5.090;2023-04-22T06:44:35;36.83;;;35.63;;
13605;SDS011;6874;52.084;5.090;2023-04-22T06:47:01;38.73;;;37.50;;
13605;SDS011;6874;52.084;5.090;2023-04-22T06:49:26;40.87;;;39.57;;
13605;SDS011;6874;52.084;5.090;2023-04-22T06:51:52;40.43;;;39.13;;
13605;SDS011;6874;52.084;5.090;2023-04-22T06:54:17;41.80;;;40.50;;
13605;SDS011;6874;52.084;5.090;2023-04-22T06:56:43;38.60;;;37.40;;
13605;SDS011;6874;52.084;5.090;2023-04-22T06:59:08;43.27;;;41.87;;
13605;SDS011;6874;52.084;5.090;2023-04-22T07:01:34;43.17;;;41.77;;
13605;SDS011;6874;52.084;5.090;2023-04-22T07:03:59;41.47;;;40.17;;
13605;SDS011;6874;52.084;5.090;2023-04-22T07:06:25;43.23;;;41.83;;
13605;SDS011;6874;52.084;5.090;2023-04-22T07:08:51;40.50;;;39.20;;
13605;SDS011;6874;52.084;5.090;2023-04-22T07:11:17;40.93;;;39.63;;
13605;SDS011;6874;52.084;5.090;2023-04-22T07:13:46;39.20;;;37.90;;
13605;SDS011;6874;52.084;5.090;2023-04-22T07:16:15;33.50;;;32.40;;
13605;SDS011;6874;52.084;5.090;2023-04-22T07:18:40;28.93;;;28.03;;
13605;SDS011;6874;52.084;5.090;2023-04-22T07:21:06;27.87;;;26.97;;
13605;SDS011;6874;52.084;5.090;2023-04-22T07:23:32;27.70;;;26.80;;
13605;SDS011;6874;52.084;5.090;2023-04-22T07:25:59;25.40;;;24.60;;
13605;SDS011;6874;52.084;5.090;2023-04-22T07:28:26;25.93;;;25.13;;
13605;SDS011;6874;52.084;5.090;2023-04-22T07:30:52;24.60;;;23.80;;
13605;SDS011;6874;52.084;5.090;2023-04-22T07:33:18;24.30;;;23.50;;
13605;SDS011;6874;52.084;5.090;2023-04-22T07:35:43;24.87;;;24.07;;
13605;SDS011;6874;52.084;5.090;2023-04-22T07:38:09;22.70;;;22.00;;
13605;SDS011;6874;52.084;5.090;2023-04-22T07:40:35;22.50;;;21.80;;
13605;SDS011;6874;52.084;5.090;2023-04-22T07:43:00;23.57;;;22.80;;
13605;SDS011;6874;52.084;5.090;2023-04-22T07:45:29;23.57;;;22.87;;
13605;SDS011;6874;52.084;5.090;2023-04-22T07:47:58;21.13;;;20.47;;
13605;SDS011;6874;52.084;5.090;2023-04-22T07:50:24;23.10;;;22.37;;
13605;SDS011;6874;52.084;5.090;2023-04-22T07:52:49;24.77;;;23.97;;
13605;SDS011;6874;52.084;5.090;2023-04-22T07:55:15;22.13;;;21.43;;
13605;SDS011;6874;52.084;5.090;2023-04-22T07:57:40;23.53;;;22.80;;
13605;SDS011;6874;52.084;5.090;2023-04-22T08:00:06;24.33;;;23.53;;
13605;SDS011;6874;52.084;5.090;2023-04-22T08:02:34;25.40;;;24.60;;
13605;SDS011;6874;52.084;5.090;2023-04-22T08:04:59;28.43;;;27.53;;
13605;SDS011;6874;52.084;5.090;2023-04-22T08:07:25;29.43;;;28.47;;
13605;SDS011;6874;52.084;5.090;2023-04-22T08:09:51;31.87;;;30.83;;
13605;SDS011;6874;52.084;5.090;2023-04-22T08:12:17;34.43;;;33.30;;
13605;SDS011;6874;52.084;5.090;2023-04-22T08:14:43;34.07;;;32.97;;
13605;SDS011;6874;52.084;5.090;2023-04-22T08:17:08;34.43;;;33.30;;
13605;SDS011;6874;52.084;5.090;2023-04-22T08:19:34;35.87;;;34.63;;
13605;SDS011;6874;52.084;5.090;2023-04-22T08:21:59;34.93;;;33.73;;
13605;SDS011;6874;52.084;5.090;2023-04-22T08:24:25;36.73;;;35.47;;
13605;SDS011;6874;52.084;5.090;2023-04-22T08:26:51;35.07;;;33.87;;
13605;SDS011;6874;52.084;5.090;2023-04-22T08:29:16;40.13;;;38.73;;
13605;SDS011;6874;52.084;5.090;2023-04-22T08:31:42;37.97;;;36.63;;
13605;SDS011;6874;52.084;5.090;2023-04-22T08:34:08;39.77;;;38.37;;
13605;SDS011;6874;52.084;5.090;2023-04-22T08:36:33;40.03;;;38.63;;
13605;SDS011;6874;52.084;5.090;2023-04-22T08:38:59;42.27;;;40.80;;
13605;SDS011;6874;52.084;5.090;2023-04-22T08:41:25;44.53;;;42.93;;
13605;SDS011;6874;52.084;5.090;2023-04-22T08:43:51;48.90;;;47.20;;
13605;SDS011;6874;52.084;5.090;2023-04-22T08:46:17;48.17;;;46.47;;
13605;SDS011;6874;52.084;5.090;2023-04-22T08:48:49;48.93;;;47.27;;
13605;SDS011;6874;52.084;5.090;2023-04-22T08:51:16;50.23;;;48.47;;
13605;SDS011;6874;52.084;5.090;2023-04-22T08:53:42;55.73;;;53.80;;
13605;SDS011;6874;52.084;5.090;2023-04-22T08:56:09;55.67;;;53.73;;
13605;SDS011;6874;52.084;5.090;2023-04-22T08:58:37;60.83;;;58.73;;
13605;SDS011;6874;52.084;5.090;2023-04-22T09:01:04;62.93;;;60.80;;
13605;SDS011;6874;52.084;5.090;2023-04-22T09:03:31;65.53;;;63.30;;
13605;SDS011;6874;52.084;5.090;2023-04-22T09:05:59;72.00;;;69.57;;
13605;SDS011;6874;52.084;5.090;2023-04-22T09:08:31;114.33;;;110.57;;
13605;SDS011;6874;52.084;5.090;2023-04-22T09:10:57;119.43;;;115.47;;
13605;SDS011;6874;52.084;5.090;2023-04-22T09:13:24;127.23;;;123.07;;
13605;SDS011;6874;52.084;5.090;2023-04-22T09:15:50;133.27;;;128.87;;
13605;SDS011;6874;52.084;5.090;2023-04-22T09:18:16;137.70;;;133.17;;
13605;SDS011;6874;52.084;5.090;2023-04-22T09:20:43;197.67;;;191.07;;
13605;SDS011;6874;52.084;5.090;2023-04-22T09:23:11;223.90;;;216.40;;
13605;SDS011;6874;52.084;5.090;2023-04-22T09:25:37;220.47;;;213.00;;
13605;SDS011;6874;52.084;5.090;2023-04-22T09:28:03;204.13;;;197.23;;
13605;SDS011;6874;52.084;5.090;2023-04-22T09:30:32;182.30;;;176.07;;
13605;SDS011;6874;52.084;5.090;2023-04-22T09:33:02;155.60;;;150.30;;
13605;SDS011;6874;52.084;5.090;2023-04-22T09:35:29;142.97;;;138.20;;
13605;SDS011;6874;52.084;5.090;2023-04-22T09:37:56;107.47;;;103.97;;
13605;SDS011;6874;52.084;5.090;2023-04-22T09:40:23;145.67;;;140.90;;
13605;SDS011;6874;52.084;5.090;2023-04-22T09:42:50;192.57;;;186.17;;
13605;SDS011;6874;52.084;5.090;2023-04-22T09:45:51;254.10;;;245.50;;
13605;SDS011;6874;52.084;5.090;2023-04-22T09:48:18;279.23;;;269.83;;
13605;SDS011;6874;52.084;5.090;2023-04-22T09:50:45;265.77;;;256.73;;
13605;SDS011;6874;52.084;5.090;2023-04-22T09:53:13;251.70;;;243.00;;
13605;SDS011;6874;52.084;5.090;2023-04-22T09:55:42;237.37;;;229.23;;
13605;SDS011;6874;52.084;5.090;2023-04-22T09:58:14;221.83;;;214.17;;
13605;SDS011;6874;52.084;5.090;2023-04-22T10:00:42;207.43;;;200.37;;
13605;SDS011;6874;52.084;5.090;2023-04-22T10:03:11;172.87;;;167.00;;
13605;SDS011;6874;52.084;5.090;2023-04-22T10:05:36;156.47;;;151.20;;
13605;SDS011;6874;52.084;5.090;2023-04-22T10:08:03;139.53;;;134.83;;
13605;SDS011;6874;52.084;5.090;2023-04-22T10:10:33;123.03;;;118.90;;
13605;SDS011;6874;52.084;5.090;2023-04-22T10:13:00;102.03;;;98.53;;
13605;SDS011;6874;52.084;5.090;2023-04-22T10:15:41;96.50;;;93.23;;
13605;SDS011;6874;52.084;5.090;2023-04-22T10:18:11;81.80;;;79.00;;
13605;SDS011;6874;52.084;5.090;2023-04-22T10:20:39;79.83;;;77.07;;
13605;SDS011;6874;52.084;5.090;2023-04-22T10:23:06;80.10;;;77.30;;
13605;SDS011;6874;52.084;5.090;2023-04-22T10:25:46;82.33;;;79.43;;
13605;SDS011;6874;52.084;5.090;2023-04-22T10:28:14;86.97;;;83.97;;
13605;SDS011;6874;52.084;5.090;2023-04-22T10:30:40;89.00;;;85.87;;
13605;SDS011;6874;52.084;5.090;2023-04-22T10:41:23;235.00;;;226.90;;
13605;SDS011;6874;52.084;5.090;2023-04-22T10:43:59;318.27;;;304.63;;
13605;SDS011;6874;52.084;5.090;2023-04-22T10:49:07;73.97;;;71.30;;
13605;SDS011;6874;52.084;5.090;2023-04-22T10:54:02;52.20;;;50.37;;
13605;SDS011;6874;52.084;5.090;2023-04-22T10:56:28;50.10;;;48.40;;
13605;SDS011;6874;52.084;5.090;2023-04-22T10:58:54;44.57;;;43.07;;
13605;SDS011;6874;52.084;5.090;2023-04-22T11:01:20;39.57;;;38.17;;
13605;SDS011;6874;52.084;5.090;2023-04-22T11:03:46;32.47;;;31.37;;
13605;SDS011;6874;52.084;5.090;2023-04-22T11:06:18;33.53;;;32.43;;
13605;SDS011;6874;52.084;5.090;2023-04-22T11:09:05;25.80;;;24.97;;
13605;SDS011;6874;52.084;5.090;2023-04-22T11:11:34;28.47;;;27.57;;
13605;SDS011;6874;52.084;5.090;2023-04-22T11:13:59;29.70;;;28.70;;
13605;SDS011;6874;52.084;5.090;2023-04-22T11:16:25;28.13;;;27.23;;
13605;SDS011;6874;52.084;5.090;2023-04-22T11:18:51;27.57;;;26.67;;
13605;SDS011;6874;52.084;5.090;2023-04-22T11:21:17;36.07;;;34.87;;
13605;SDS011;6874;52.084;5.090;2023-04-22T11:23:50;42.30;;;40.93;;
13605;SDS011;6874;52.084;5.090;2023-04-22T11:26:33;43.10;;;41.67;;
13605;SDS011;6874;52.084;5.090;2023-04-22T11:28:59;45.97;;;44.47;;
13605;SDS011;6874;52.084;5.090;2023-04-22T11:31:25;48.33;;;46.77;;
13605;SDS011;6874;52.084;5.090;2023-04-22T11:33:51;50.93;;;49.27;;
13605;SDS011;6874;52.084;5.090;2023-04-22T11:36:17;48.77;;;47.20;;
13605;SDS011;6874;52.084;5.090;2023-04-22T11:38:52;48.97;;;47.37;;
13605;SDS011;6874;52.084;5.090;2023-04-22T11:41:20;46.87;;;45.33;;
13605;SDS011;6874;52.084;5.090;2023-04-22T11:43:47;91.67;;;88.57;;
13605;SDS011;6874;52.084;5.090;2023-04-22T11:46:13;83.73;;;80.93;;
13605;SDS011;6874;52.084;5.090;2023-04-22T11:48:38;76.70;;;74.17;;
13605;SDS011;6874;52.084;5.090;2023-04-22T11:51:08;79.53;;;76.90;;
13605;SDS011;6874;52.084;5.090;2023-04-22T11:53:35;78.47;;;75.87;;
13605;SDS011;6874;52.084;5.090;2023-04-22T11:56:02;90.57;;;87.57;;
13605;SDS011;6874;52.084;5.090;2023-04-22T11:58:28;90.50;;;87.50;;
13605;SDS011;6874;52.084;5.090;2023-04-22T12:00:56;93.37;;;90.27;;
13605;SDS011;6874;52.084;5.090;2023-04-22T12:03:23;91.03;;;88.03;;
13605;SDS011;6874;52.084;5.090;2023-04-22T12:05:56;85.53;;;82.73;;
13605;SDS011;6874;52.084;5.090;2023-04-22T12:08:29;94.37;;;91.23;;
13605;SDS011;6874;52.084;5.090;2023-04-22T12:11:07;94.33;;;91.17;;
13605;SDS011;6874;52.084;5.090;2023-04-22T12:16:08;99.40;;;96.10;;
13605;SDS011;6874;52.084;5.090;2023-04-22T12:18:39;99.77;;;96.43;;
13605;SDS011;6874;52.084;5.090;2023-04-22T12:26:10;123.30;;;119.10;;
13605;SDS011;6874;52.084;5.090;2023-04-22T12:28:36;126.80;;;122.50;;
13605;SDS011;6874;52.084;5.090;2023-04-22T12:31:03;124.43;;;120.20;;
13605;SDS011;6874;52.084;5.090;2023-04-22T12:33:28;140.03;;;135.23;;
13605;SDS011;6874;52.084;5.090;2023-04-22T12:35:54;137.27;;;132.57;;
13605;SDS011;6874;52.084;5.090;2023-04-22T12:38:20;134.57;;;129.97;;
13605;SDS011;6874;52.084;5.090;2023-04-22T12:40:45;143.67;;;138.80;;
13605;SDS011;6874;52.084;5.090;2023-04-22T12:43:11;140.30;;;135.50;;
13605;SDS011;6874;52.084;5.090;2023-04-22T12:45:37;133.87;;;129.27;;
13605;SDS011;6874;52.084;5.090;2023-04-22T12:48:02;134.77;;;130.17;;
13605;SDS011;6874;52.084;5.090;2023-04-22T12:50:28;138.77;;;134.07;;
13605;SDS011;6874;52.084;5.090;2023-04-22T12:52:54;132.20;;;127.70;;
13605;SDS011;6874;52.084;5.090;2023-04-22T12:55:19;131.23;;;126.73;;
13605;SDS011;6874;52.084;5.090;2023-04-22T12:57:46;115.43;;;111.50;;
13605;SDS011;6874;52.084;5.090;2023-04-22T13:00:13;107.00;;;103.37;;
13605;SDS011;6874;52.084;5.090;2023-04-22T13:02:40;88.60;;;85.50;;
13605;SDS011;6874;52.084;5.090;2023-04-22T13:05:07;78.40;;;75.67;;
13605;SDS011;6874;52.084;5.090;2023-04-22T13:07:34;78.00;;;75.30;;
13605;SDS011;6874;52.084;5.090;2023-04-22T13:09:59;75.80;;;73.20;;
13605;SDS011;6874;52.084;5.090;2023-04-22T13:12:25;74.50;;;71.93;;
13605;SDS011;6874;52.084;5.090;2023-04-22T13:14:50;71.70;;;69.27;;
13605;SDS011;6874;52.084;5.090;2023-04-22T13:17:16;70.77;;;68.33;;
13605;SDS011;6874;52.084;5.090;2023-04-22T13:19:41;67.40;;;65.07;;
13605;SDS011;6874;52.084;5.090;2023-04-22T13:22:07;67.03;;;64.73;;
13605;SDS011;6874;52.084;5.090;2023-04-22T13:24:33;66.27;;;64.00;;
13605;SDS011;6874;52.084;5.090;2023-04-22T13:26:58;68.77;;;66.40;;
13605;SDS011;6874;52.084;5.090;2023-04-22T13:29:24;67.93;;;65.63;;
13605;SDS011;6874;52.084;5.090;2023-04-22T13:31:51;71.20;;;68.77;;
13605;SDS011;6874;52.084;5.090;2023-04-22T13:34:16;71.00;;;68.53;;
13605;SDS011;6874;52.084;5.090;2023-04-22T13:36:42;74.20;;;71.63;;
13605;SDS011;6874;52.084;5.090;2023-04-22T13:39:07;74.70;;;72.17;;
13605;SDS011;6874;52.084;5.090;2023-04-22T13:41:33;73.70;;;71.17;;
13605;SDS011;6874;52.084;5.090;2023-04-22T13:44:00;71.07;;;68.63;;
13605;SDS011;6874;52.084;5.090;2023-04-22T13:46:27;75.03;;;72.47;;
13605;SDS011;6874;52.084;5.090;2023-04-22T13:48:53;71.40;;;68.97;;
13605;SDS011;6874;52.084;5.090;2023-04-22T13:51:20;76.63;;;74.03;;
13605;SDS011;6874;52.084;5.090;2023-04-22T13:53:46;77.13;;;74.50;;
13605;SDS011;6874;52.084;5.090;2023-04-22T13:56:12;74.13;;;71.60;;
13605;SDS011;6874;52.084;5.090;2023-04-22T13:58:38;70.77;;;68.37;;
13605;SDS011;6874;52.084;5.090;2023-04-22T14:01:05;69.90;;;67.53;;
13605;SDS011;6874;52.084;5.090;2023-04-22T14:03:32;66.33;;;64.07;;
13605;SDS011;6874;52.084;5.090;2023-04-22T14:05:57;64.17;;;62.00;;
13605;SDS011;6874;52.084;5.090;2023-04-22T14:08:25;55.07;;;53.20;;
13605;SDS011;6874;52.084;5.090;2023-04-22T14:10:51;44.13;;;42.67;;
13605;SDS011;6874;52.084;5.090;2023-04-22T14:13:20;39.30;;;38.00;;
13605;SDS011;6874;52.084;5.090;2023-04-22T14:15:47;39.43;;;38.13;;
13605;SDS011;6874;52.084;5.090;2023-04-22T14:18:14;34.10;;;33.00;;
13605;SDS011;6874;52.084;5.090;2023-04-22T14:20:40;34.93;;;33.80;;
13605;SDS011;6874;52.084;5.090;2023-04-22T14:23:07;34.97;;;33.83;;
13605;SDS011;6874;52.084;5.090;2023-04-22T14:25:32;33.73;;;32.63;;
13605;SDS011;6874;52.084;5.090;2023-04-22T14:27:58;35.63;;;34.47;;
13605;SDS011;6874;52.084;5.090;2023-04-22T14:30:24;37.40;;;36.17;;
13605;SDS011;6874;52.084;5.090;2023-04-22T14:32:50;39.10;;;37.83;;
13605;SDS011;6874;52.084;5.090;2023-04-22T14:35:16;38.77;;;37.50;;
13605;SDS011;6874;52.084;5.090;2023-04-22T14:37:42;42.30;;;40.90;;
13605;SDS011;6874;52.084;5.090;2023-04-22T14:40:09;41.50;;;40.13;;
13605;SDS011;6874;52.084;5.090;2023-04-22T14:42:36;40.43;;;39.10;;
13605;SDS011;6874;52.084;5.090;2023-04-22T14:45:02;42.57;;;41.17;;
13605;SDS011;6874;52.084;5.090;2023-04-22T14:47:28;44.90;;;43.40;;